Time;durP1;ratioP1;P1;durP2;ratioP2;P2;SDS_P1;SDS_P2;PMS_P1;PMS_P2;Temp;Humidity;BMP_temperature;BMP_pressure;BME280_temperature;BME280_humidity;BME280_pressure;Samples;Min_cycle;Max_cycle;Signal;HPM_P1;HPM_P2
2023/06/24 00:02:26;;;;;;;1.80;1.70;;;;;;;-148.14;100.00;71486.72;1725295;75;41578;-77
2023/06/24 00:05:00;;;;;;;2.10;1.90;;;;;;;-148.14;100.00;71486.72;1724920;75;41289;-77
2023/06/24 00:07:29;;;;;;;1.90;1.70;;;;;;;-148.14;100.00;71486.72;1725393;75;42087;-74
2023/06/24 00:09:59;;;;;;;2.50;2.30;;;;;;;-148.14;100.00;71486.72;1724255;75;43094;-79
2023/06/24 00:12:32;;;;;;;3.50;3.20;;;;;;;-148.14;100.00;71486.72;1725176;75;41312;-75
2023/06/24 00:15:02;;;;;;;3.90;3.50;;;;;;;-148.14;100.00;71486.72;1724894;75;41419;-74
2023/06/24 00:17:31;;;;;;;3.60;3.30;;;;;;;-148.14;100.00;71486.72;1725367;75;41365;-75
2023/06/24 00:20:01;;;;;;;2.80;2.60;;;;;;;-148.14;100.00;71486.72;1724984;75;41580;-75
2023/06/24 00:22:30;;;;;;;2.50;2.30;;;;;;;-148.14;100.00;71486.72;1725205;75;41144;-75
2023/06/24 00:25:00;;;;;;;3.70;3.40;;;;;;;-148.14;100.00;71486.72;1724976;75;41132;-77
2023/06/24 00:27:32;;;;;;;3.00;2.60;;;;;;;-148.14;100.00;71486.72;1725316;75;41107;-77
2023/06/24 00:30:01;;;;;;;2.80;2.50;;;;;;;-148.14;100.00;71486.72;1724886;75;41264;-73
2023/06/24 00:32:31;;;;;;;3.40;3.10;;;;;;;-148.14;100.00;71486.72;1725332;75;41319;-72
2023/06/24 00:35:00;;;;;;;3.10;2.80;;;;;;;-148.14;100.00;71486.72;1724789;75;41319;-76
2023/06/24 00:37:30;;;;;;;3.60;3.30;;;;;;;-148.14;100.00;71486.72;1725337;75;41568;-74
2023/06/24 00:39:59;;;;;;;4.50;3.80;;;;;;;-148.14;100.00;71486.72;1724192;75;42121;-75
2023/06/24 00:42:31;;;;;;;3.30;3.00;;;;;;;-148.14;100.00;71486.72;1724643;75;41417;-75
2023/06/24 00:45:03;;;;;;;3.00;2.70;;;;;;;-148.14;100.00;71486.72;1724978;75;41550;-76
2023/06/24 00:47:33;;;;;;;2.90;2.70;;;;;;;-148.14;100.00;71486.72;1725603;75;41214;-78
2023/06/24 00:50:02;;;;;;;2.70;2.40;;;;;;;-148.14;100.00;71486.72;1725108;83;41499;-75
2023/06/24 00:52:32;;;;;;;2.70;2.50;;;;;;;-148.14;100.00;71486.72;1725684;75;41112;-75
2023/06/24 00:55:02;;;;;;;2.80;2.60;;;;;;;-148.14;100.00;71486.72;1725052;75;41485;-73
2023/06/24 00:57:38;;;;;;;2.60;2.40;;;;;;;-148.14;100.00;71486.72;1724852;75;41399;-73
2023/06/24 01:00:14;;;;;;;2.40;2.20;;;;;;;-148.14;100.00;71486.72;1725201;75;42114;-75
2023/06/24 01:02:44;;;;;;;2.10;2.00;;;;;;;-148.14;100.00;71486.72;1725179;75;41379;-73
2023/06/24 01:05:14;;;;;;;3.20;2.50;;;;;;;-148.14;100.00;71486.72;1725553;75;41364;-76
2023/06/24 01:07:44;;;;;;;5.40;3.80;;;;;;;-148.14;100.00;71486.72;1725033;75;41535;-75
2023/06/24 01:10:15;;;;;;;5.90;5.30;;;;;;;-148.14;100.00;71486.72;1725658;75;41511;-77
2023/06/24 01:12:47;;;;;;;5.50;5.00;;;;;;;-148.14;100.00;71486.72;1724850;75;41904;-74
2023/06/24 01:15:16;;;;;;;6.10;4.80;;;;;;;-148.14;100.00;71486.72;1725805;75;41291;-76
2023/06/24 01:17:51;;;;;;;3.80;3.50;;;;;;;-148.14;100.00;71486.72;1725062;75;41727;-77
2023/06/24 01:20:27;;;;;;;3.20;2.90;;;;;;;-148.14;100.00;71486.72;1725482;75;41921;-74
2023/06/24 01:23:20;;;;;;;3.20;2.90;;;;;;;-148.14;100.00;71486.72;1725872;75;41635;-75
2023/06/24 01:26:16;;;;;;;2.90;2.60;;;;;;;-148.14;100.00;71486.72;1725805;75;41598;-75
2023/06/24 01:29:06;;;;;;;2.40;2.20;;;;;;;-148.14;100.00;71486.72;1724922;75;41210;-76
2023/06/24 01:31:42;;;;;;;2.20;1.90;;;;;;;-148.14;100.00;71486.72;1725662;75;41091;-77
2023/06/24 01:34:18;;;;;;;2.30;2.10;;;;;;;-148.14;100.00;71486.72;1725248;75;42522;-79
2023/06/24 01:36:54;;;;;;;2.40;2.20;;;;;;;-148.14;100.00;71486.72;1724983;83;41814;-76
2023/06/24 01:39:26;;;;;;;3.50;2.50;;;;;;;-148.14;100.00;71486.72;1725415;75;41276;-75
2023/06/24 01:42:11;;;;;;;3.70;3.00;;;;;;;-148.14;100.00;71486.72;1725175;75;41542;-75
2023/06/24 01:44:41;;;;;;;3.00;2.70;;;;;;;-148.14;100.00;71486.72;1725414;75;41646;-77
2023/06/24 01:47:15;;;;;;;3.50;3.20;;;;;;;-148.14;100.00;71486.72;1725006;75;41312;-75
2023/06/24 01:49:46;;;;;;;4.70;4.30;;;;;;;-148.14;100.00;71486.72;1725666;75;42616;-77
2023/06/24 01:52:17;;;;;;;4.60;4.00;;;;;;;-148.14;100.00;71486.72;1724150;75;42232;-77
2023/06/24 01:54:49;;;;;;;4.20;3.80;;;;;;;-148.14;100.00;71486.72;1725674;75;41371;-74
2023/06/24 01:57:19;;;;;;;5.00;3.50;;;;;;;-148.14;100.00;71486.72;1725260;75;41616;-76
2023/06/24 01:59:49;;;;;;;3.00;2.70;;;;;;;-148.14;100.00;71486.72;1724930;75;41219;-77
2023/06/24 02:02:22;;;;;;;4.60;4.20;;;;;;;-148.14;100.00;71486.72;1724853;75;41502;-76
2023/06/24 02:04:53;;;;;;;3.70;3.40;;;;;;;-148.14;100.00;71486.72;1725552;75;41560;-75
2023/06/24 02:07:22;;;;;;;3.90;3.50;;;;;;;-148.14;100.00;71486.72;1724481;75;42151;-74
2023/06/24 02:09:52;;;;;;;4.00;3.20;;;;;;;-148.14;100.00;71486.72;1725584;75;41338;-76
2023/06/24 02:12:22;;;;;;;4.50;3.90;;;;;;;-148.14;100.00;71486.72;1724677;83;41201;-74
2023/06/24 02:14:53;;;;;;;3.80;3.50;;;;;;;-148.14;100.00;71486.72;1725580;75;41291;-76
2023/06/24 02:17:26;;;;;;;2.90;2.60;;;;;;;-148.14;100.00;71486.72;1725016;75;41655;-76
2023/06/24 02:19:56;;;;;;;3.40;3.10;;;;;;;-148.14;100.00;71486.72;1725132;75;41119;-76
2023/06/24 02:22:26;;;;;;;3.50;3.20;;;;;;;-148.14;100.00;71486.72;1725641;75;43176;-76
2023/06/24 02:24:56;;;;;;;3.10;2.80;;;;;;;-148.14;100.00;71486.72;1725789;75;41489;-76
2023/06/24 02:27:26;;;;;;;2.90;2.70;;;;;;;-148.14;100.00;71486.72;1725592;75;42963;-77
2023/06/24 02:29:56;;;;;;;2.30;2.10;;;;;;;-148.14;100.00;71486.72;1725669;75;41955;-73
2023/06/24 02:32:29;;;;;;;2.10;1.90;;;;;;;-148.14;100.00;71486.72;1725656;83;41403;-73
2023/06/24 02:34:59;;;;;;;2.30;2.10;;;;;;;-148.14;100.00;71486.72;1725893;75;41117;-78
2023/06/24 02:37:29;;;;;;;2.80;2.50;;;;;;;-148.14;100.00;71486.72;1725338;75;42140;-78
2023/06/24 02:40:00;;;;;;;5.40;2.80;;;;;;;-148.14;100.00;71486.72;1725374;83;42345;-77
2023/06/24 02:42:29;;;;;;;2.70;2.50;;;;;;;-148.14;100.00;71486.72;1724497;75;42649;-75
2023/06/24 02:44:58;;;;;;;2.00;1.90;;;;;;;-148.14;100.00;71486.72;1725478;75;42033;-79
2023/06/24 02:47:31;;;;;;;2.20;2.00;;;;;;;-148.14;100.00;71486.72;1724687;75;41337;-78
2023/06/24 02:50:01;;;;;;;2.30;2.10;;;;;;;-148.14;100.00;71486.72;1725500;75;41122;-78
2023/06/24 02:52:31;;;;;;;2.10;1.90;;;;;;;-148.14;100.00;71486.72;1724358;75;41764;-76
2023/06/24 02:55:01;;;;;;;2.30;2.10;;;;;;;-148.14;100.00;71486.72;1725402;75;41136;-78
2023/06/24 02:57:30;;;;;;;2.40;2.10;;;;;;;-148.14;100.00;71486.72;1724797;75;41530;-78
2023/06/24 03:00:05;;;;;;;2.10;1.90;;;;;;;-148.14;100.00;71486.72;1725505;75;41744;-78
2023/06/24 03:02:38;;;;;;;2.10;1.90;;;;;;;-148.14;100.00;71486.72;1725225;75;41472;-75
2023/06/24 03:05:09;;;;;;;3.10;2.30;;;;;;;-148.14;100.00;71486.72;1725403;75;41107;-74
2023/06/24 03:07:38;;;;;;;2.70;2.10;;;;;;;-148.14;100.00;71486.72;1724141;75;42272;-75
2023/06/24 03:10:10;;;;;;;2.50;2.10;;;;;;;-148.14;100.00;71486.72;1725358;75;41282;-73
2023/06/24 03:12:40;;;;;;;2.30;2.10;;;;;;;-148.14;100.00;71486.72;1724746;75;41643;-75
2023/06/24 03:15:10;;;;;;;2.70;2.30;;;;;;;-148.14;100.00;71486.72;1724557;75;41106;-76
2023/06/24 03:17:43;;;;;;;2.10;1.90;;;;;;;-148.14;100.00;71486.72;1725011;75;41488;-75
2023/06/24 03:20:13;;;;;;;2.30;2.10;;;;;;;-148.14;100.00;71486.72;1725164;75;41087;-76
2023/06/24 03:22:43;;;;;;;2.90;2.40;;;;;;;-148.14;100.00;71486.72;1724966;75;41878;-78
2023/06/24 03:25:12;;;;;;;2.40;2.20;;;;;;;-148.14;100.00;71486.72;1725310;75;41103;-75
2023/06/24 03:27:42;;;;;;;2.00;1.80;;;;;;;-148.14;100.00;71486.72;1724915;75;41683;-71
2023/06/24 03:30:14;;;;;;;2.00;1.70;;;;;;;-148.14;100.00;71486.72;1725227;75;41573;-74
2023/06/24 03:32:47;;;;;;;1.80;1.60;;;;;;;-148.14;100.00;71486.72;1724883;75;41577;-78
2023/06/24 03:35:16;;;;;;;2.30;2.10;;;;;;;-148.14;100.00;71486.72;1725031;75;41774;-76
2023/06/24 03:37:46;;;;;;;3.10;2.70;;;;;;;-148.14;100.00;71486.72;1724713;75;41778;-73
2023/06/24 03:40:16;;;;;;;4.30;3.10;;;;;;;-148.14;100.00;71486.72;1724986;75;41294;-77
2023/06/24 03:42:46;;;;;;;3.50;2.70;;;;;;;-148.14;100.00;71486.72;1724532;75;41267;-75
2023/06/24 03:45:15;;;;;;;3.40;2.90;;;;;;;-148.14;100.00;71486.72;1725187;75;41164;-76
2023/06/24 03:47:47;;;;;;;3.20;2.70;;;;;;;-148.14;100.00;71486.72;1724969;75;41330;-75
2023/06/24 03:50:17;;;;;;;2.20;2.00;;;;;;;-148.14;100.00;71486.72;1725205;75;41556;-76
2023/06/24 03:52:46;;;;;;;2.30;2.10;;;;;;;-148.14;100.00;71486.72;1724618;75;43398;-76
2023/06/24 03:55:16;;;;;;;4.30;2.30;;;;;;;-148.14;100.00;71486.72;1725329;75;41570;-78
2023/06/24 03:57:46;;;;;;;2.20;1.90;;;;;;;-148.14;100.00;71486.72;1724744;75;41678;-76
2023/06/24 04:00:17;;;;;;;3.20;2.10;;;;;;;-148.14;100.00;71486.72;1725446;75;41121;-75
2023/06/24 04:02:49;;;;;;;2.80;2.50;;;;;;;-148.14;100.00;71486.72;1724672;75;42311;-75
2023/06/24 04:05:19;;;;;;;2.20;2.00;;;;;;;-148.14;100.00;71486.72;1724980;83;41786;-74
2023/06/24 04:07:50;;;;;;;1.90;1.80;;;;;;;-148.14;100.00;71486.72;1724866;75;41632;-73
2023/06/24 04:10:21;;;;;;;1.70;1.60;;;;;;;-148.14;100.00;71486.72;1725350;75;41326;-75
2023/06/24 04:12:50;;;;;;;1.90;1.80;;;;;;;-148.14;100.00;71486.72;1724387;75;42468;-73
2023/06/24 04:15:20;;;;;;;2.80;1.90;;;;;;;-148.14;100.00;71486.72;1725229;75;41809;-76
2023/06/24 04:17:52;;;;;;;2.20;1.50;;;;;;;-148.14;100.00;71486.72;1724809;75;41246;-73
2023/06/24 04:20:21;;;;;;;2.00;1.80;;;;;;;-148.14;100.00;71486.72;1725528;83;41084;-75
2023/06/24 04:22:51;;;;;;;1.80;1.70;;;;;;;-148.14;100.00;71486.72;1725243;75;42545;-75
2023/06/24 04:25:20;;;;;;;2.80;2.00;;;;;;;-148.14;100.00;71486.72;1725530;75;41637;-75
2023/06/24 04:27:50;;;;;;;2.50;2.30;;;;;;;-148.14;100.00;71486.72;1725258;75;41112;-74
2023/06/24 04:30:19;;;;;;;2.80;2.20;;;;;;;-148.14;100.00;71486.72;1725783;75;41172;-75
2023/06/24 04:32:51;;;;;;;3.00;2.70;;;;;;;-148.14;100.00;71486.72;1725223;75;41251;-73
2023/06/24 04:35:21;;;;;;;2.20;2.00;;;;;;;-148.14;100.00;71486.72;1725433;75;41762;-72
2023/06/24 04:37:50;;;;;;;3.10;2.80;;;;;;;-148.14;100.00;71486.72;1725268;75;41544;-75
2023/06/24 04:40:20;;;;;;;2.30;2.10;;;;;;;-148.14;100.00;71486.72;1725736;75;41313;-76
2023/06/24 04:42:50;;;;;;;2.30;2.10;;;;;;;-148.14;100.00;71486.72;1725265;75;41105;-73
2023/06/24 04:45:20;;;;;;;1.90;1.80;;;;;;;-148.14;100.00;71486.72;1725577;75;41891;-75
2023/06/24 04:47:53;;;;;;;2.70;2.50;;;;;;;-148.14;100.00;71486.72;1725175;75;41286;-77
2023/06/24 04:50:23;;;;;;;4.70;4.20;;;;;;;-148.14;100.00;71486.72;1725565;75;41777;-74
2023/06/24 04:52:56;;;;;;;3.60;3.30;;;;;;;-148.14;100.00;71486.72;1724558;75;44152;-76
2023/06/24 04:55:26;;;;;;;3.40;3.10;;;;;;;-148.14;100.00;71486.72;1725790;75;41748;-73
2023/06/24 04:57:55;;;;;;;2.90;2.60;;;;;;;-148.14;100.00;71486.72;1725083;75;41829;-77
2023/06/24 05:00:25;;;;;;;4.50;4.10;;;;;;;-148.14;100.00;71486.72;1725879;75;41385;-72
2023/06/24 05:02:57;;;;;;;5.10;4.60;;;;;;;-148.14;100.00;71486.72;1724818;75;41858;-73
2023/06/24 05:05:27;;;;;;;4.80;4.10;;;;;;;-148.14;100.00;71486.72;1725648;75;41488;-72
2023/06/24 05:07:56;;;;;;;4.60;3.60;;;;;;;-148.14;100.00;71486.72;1725141;75;41786;-76
2023/06/24 05:10:26;;;;;;;4.40;4.00;;;;;;;-148.14;100.00;71486.72;1724923;75;41764;-73
2023/06/24 05:12:55;;;;;;;5.00;4.60;;;;;;;-148.14;100.00;71486.72;1724522;75;41298;-76
2023/06/24 05:15:25;;;;;;;6.30;5.70;;;;;;;-148.14;100.00;71486.72;1725716;75;42040;-75
2023/06/24 05:17:57;;;;;;;5.50;5.00;;;;;;;-148.14;100.00;71486.72;1724903;75;41312;-76
2023/06/24 05:20:26;;;;;;;7.00;6.30;;;;;;;-148.14;100.00;71486.72;1725923;75;42010;-75
2023/06/24 05:22:56;;;;;;;6.60;6.00;;;;;;;-148.14;100.00;71486.72;1725650;83;42448;-77
2023/06/24 05:25:26;;;;;;;7.40;6.70;;;;;;;-148.14;100.00;71486.72;1725900;75;41100;-75
2023/06/24 05:27:55;;;;;;;6.40;5.80;;;;;;;-148.14;100.00;71486.72;1725312;75;41878;-77
2023/06/24 05:30:25;;;;;;;6.70;6.00;;;;;;;-148.14;100.00;71486.72;1725522;75;41128;-74
2023/06/24 05:32:57;;;;;;;5.60;5.10;;;;;;;-148.14;100.00;71486.72;1725182;75;41384;-74
2023/06/24 05:35:26;;;;;;;5.60;5.10;;;;;;;-148.14;100.00;71486.72;1725502;75;41952;-75
2023/06/24 05:37:56;;;;;;;4.20;3.80;;;;;;;-148.14;100.00;71486.72;1724759;75;41497;-73
2023/06/24 05:40:25;;;;;;;4.10;3.40;;;;;;;-148.14;100.00;71486.72;1725423;83;42053;-74
2023/06/24 05:42:55;;;;;;;4.80;4.40;;;;;;;-148.14;100.00;71486.72;1724839;75;41796;-75
2023/06/24 05:45:24;;;;;;;6.00;5.40;;;;;;;-148.14;100.00;71486.72;1725559;75;42072;-73
2023/06/24 05:47:56;;;;;;;8.00;5.70;;;;;;;-148.14;100.00;71486.72;1725122;83;41598;-75
2023/06/24 05:50:26;;;;;;;5.90;5.40;;;;;;;-148.14;100.00;71486.72;1724919;83;41560;-75
2023/06/24 05:52:55;;;;;;;6.10;5.50;;;;;;;-148.14;100.00;71486.72;1724802;75;42063;-75
2023/06/24 05:55:25;;;;;;;5.60;5.10;;;;;;;-148.14;100.00;71486.72;1725484;83;41441;-73
2023/06/24 05:57:54;;;;;;;6.40;5.80;;;;;;;-148.14;100.00;71486.72;1724840;75;42079;-74
2023/06/24 06:00:24;;;;;;;6.60;6.00;;;;;;;-148.14;100.00;71486.72;1725352;83;41784;-73
2023/06/24 06:02:56;;;;;;;7.10;5.80;;;;;;;-148.14;100.00;71486.72;1724983;75;41185;-72
2023/06/24 06:05:26;;;;;;;6.40;5.80;;;;;;;-148.14;100.00;71486.72;1725249;75;41485;-75
2023/06/24 06:07:55;;;;;;;6.10;5.50;;;;;;;-148.14;100.00;71486.72;1725279;75;41290;-73
2023/06/24 06:10:25;;;;;;;6.20;5.60;;;;;;;-148.14;100.00;71486.72;1724993;75;41747;-77
2023/06/24 06:12:54;;;;;;;8.10;5.10;;;;;;;-148.14;100.00;71486.72;1724683;75;41332;-77
2023/06/24 06:15:24;;;;;;;7.20;5.80;;;;;;;-148.14;100.00;71486.72;1725324;83;41594;-75
2023/06/24 06:17:56;;;;;;;5.80;5.30;;;;;;;-148.14;100.00;71486.72;1725037;75;41995;-72
2023/06/24 06:20:25;;;;;;;5.00;4.60;;;;;;;-148.14;100.00;71486.72;1725502;75;41118;-75
2023/06/24 06:22:55;;;;;;;4.80;4.40;;;;;;;-148.14;100.00;71486.72;1725102;75;41791;-74
2023/06/24 06:25:24;;;;;;;4.60;4.20;;;;;;;-148.14;100.00;71486.72;1725629;75;41824;-77
2023/06/24 06:27:54;;;;;;;4.30;3.90;;;;;;;-148.14;100.00;71486.72;1725073;75;41428;-78
2023/06/24 06:30:24;;;;;;;5.30;4.80;;;;;;;-148.14;100.00;71486.72;1725052;75;41332;-75
2023/06/24 06:32:56;;;;;;;5.30;4.80;;;;;;;-148.14;100.00;71486.72;1725259;75;41783;-71
2023/06/24 06:35:25;;;;;;;5.00;4.60;;;;;;;-148.14;100.00;71486.72;1725375;75;41842;-77
2023/06/24 06:37:55;;;;;;;5.20;4.70;;;;;;;-148.14;100.00;71486.72;1725243;75;41549;-76
2023/06/24 06:40:24;;;;;;;4.90;4.40;;;;;;;-148.14;100.00;71486.72;1726060;75;41132;-74
2023/06/24 06:42:54;;;;;;;5.00;4.50;;;;;;;-148.14;100.00;71486.72;1725814;75;41353;-74
2023/06/24 06:45:25;;;;;;;4.20;3.80;;;;;;;-148.14;100.00;71486.72;1725192;75;41145;-78
2023/06/24 06:47:57;;;;;;;4.40;4.00;;;;;;;-148.14;100.00;71486.72;1725307;75;41434;-72
2023/06/24 06:50:26;;;;;;;3.60;3.30;;;;;;;-148.14;100.00;71486.72;1725869;75;41315;-76
2023/06/24 06:52:56;;;;;;;4.00;3.60;;;;;;;-148.14;100.00;71486.72;1725142;75;41939;-75
2023/06/24 06:55:25;;;;;;;4.40;3.60;;;;;;;-148.14;100.00;71486.72;1725513;75;41132;-74
2023/06/24 06:57:55;;;;;;;3.00;2.70;;;;;;;-148.14;100.00;71486.72;1724956;75;41272;-76
2023/06/24 07:00:25;;;;;;;2.90;2.60;;;;;;;-148.14;100.00;71486.72;1725225;75;42229;-72
2023/06/24 07:02:57;;;;;;;2.50;2.30;;;;;;;-148.14;100.00;71486.72;1725044;75;41587;-78
2023/06/24 07:05:26;;;;;;;2.20;1.80;;;;;;;-148.14;100.00;71486.72;1725303;75;41594;-71
2023/06/24 07:07:56;;;;;;;1.90;1.70;;;;;;;-148.14;100.00;71486.72;1724949;75;41121;-76
2023/06/24 07:10:25;;;;;;;2.60;1.70;;;;;;;-148.14;100.00;71486.72;1725066;83;41976;-74
2023/06/24 07:12:58;;;;;;;1.70;1.50;;;;;;;-148.14;100.00;71486.72;1724964;75;41727;-75
2023/06/24 07:15:28;;;;;;;2.20;2.00;;;;;;;-148.14;100.00;71486.72;1725409;75;41637;-75
2023/06/24 07:18:00;;;;;;;2.00;1.80;;;;;;;-148.14;100.00;71486.72;1724856;83;42003;-74
2023/06/24 07:20:30;;;;;;;1.90;1.40;;;;;;;-148.14;100.00;71486.72;1725222;75;41097;-72
2023/06/24 07:23:00;;;;;;;2.80;1.30;;;;;;;-148.14;100.00;71486.72;1724937;83;41438;-72
2023/06/24 07:25:29;;;;;;;2.40;1.60;;;;;;;-148.14;100.00;71486.72;1725370;75;41096;-73
2023/06/24 07:27:59;;;;;;;1.80;1.30;;;;;;;-148.14;100.00;71486.72;1724884;75;42575;-75
2023/06/24 07:30:28;;;;;;;1.30;1.20;;;;;;;-148.14;100.00;71486.72;1725306;75;41323;-75
2023/06/24 07:33:05;;;;;;;1.90;1.70;;;;;;;-148.14;100.00;71486.72;1724596;83;41341;-74
2023/06/24 07:35:34;;;;;;;2.00;1.60;;;;;;;-148.14;100.00;71486.72;1724616;75;41256;-74
2023/06/24 07:38:04;;;;;;;2.00;1.40;;;;;;;-148.14;100.00;71486.72;1724299;75;42462;-75
2023/06/24 07:40:35;;;;;;;1.80;1.30;;;;;;;-148.14;100.00;71486.72;1725513;75;41383;-76
2023/06/24 07:43:04;;;;;;;0.80;0.70;;;;;;;-148.14;100.00;71486.72;1724152;75;42016;-75
2023/06/24 07:45:34;;;;;;;1.00;0.60;;;;;;;-148.14;100.00;71486.72;1725393;75;41097;-76
2023/06/24 07:48:07;;;;;;;0.60;0.40;;;;;;;-148.14;100.00;71486.72;1724846;75;42062;-74
2023/06/24 07:50:36;;;;;;;0.90;0.40;;;;;;;-148.14;100.00;71486.72;1724740;75;42457;-72
2023/06/24 07:53:06;;;;;;;0.90;0.30;;;;;;;-148.14;100.00;71486.72;1724948;75;42337;-74
2023/06/24 07:55:35;;;;;;;2.20;0.40;;;;;;;-148.14;100.00;71486.72;1725315;75;41199;-74
2023/06/24 07:58:05;;;;;;;0.90;0.30;;;;;;;-148.14;100.00;71486.72;1725129;83;41758;-75
2023/06/24 08:00:36;;;;;;;0.50;0.40;;;;;;;-148.14;100.00;71486.72;1725792;75;42438;-74
2023/06/24 08:03:09;;;;;;;0.30;0.30;;;;;;;-148.14;100.00;71486.72;1725061;83;41675;-73
2023/06/24 08:05:39;;;;;;;0.40;0.20;;;;;;;-148.14;100.00;71486.72;1724849;75;41172;-75
2023/06/24 08:08:08;;;;;;;0.50;0.20;;;;;;;-148.14;100.00;71486.72;1725207;75;42966;-77
2023/06/24 08:10:38;;;;;;;0.20;0.20;;;;;;;-148.14;100.00;71486.72;1725915;75;41557;-75
2023/06/24 08:13:07;;;;;;;0.10;0.10;;;;;;;-148.14;100.00;71486.72;1725354;75;41835;-76
2023/06/24 08:15:37;;;;;;;0.30;0.10;;;;;;;-148.14;100.00;71486.72;1725478;75;41389;-76
2023/06/24 08:18:09;;;;;;;0.40;0.20;;;;;;;-148.14;100.00;71486.72;1725275;75;41328;-74
2023/06/24 08:20:38;;;;;;;0.00;0.00;;;;;;;-148.14;100.00;71486.72;1725172;75;41380;-73
2023/06/24 08:23:09;;;;;;;0.20;0.20;;;;;;;-148.14;100.00;71486.72;1725215;75;41766;-74
2023/06/24 08:25:39;;;;;;;0.10;0.10;;;;;;;-148.14;100.00;71486.72;1725650;75;41398;-75
2023/06/24 08:28:08;;;;;;;0.40;0.10;;;;;;;-148.14;100.00;71486.72;1724462;75;42174;-75
2023/06/24 08:30:37;;;;;;;0.20;0.10;;;;;;;-148.14;100.00;71486.72;1725701;75;41395;-75
2023/06/24 08:33:10;;;;;;;0.10;0.10;;;;;;;-148.14;100.00;71486.72;1725229;75;41363;-71
2023/06/24 08:35:39;;;;;;;1.00;0.10;;;;;;;-148.14;100.00;71486.72;1725269;75;41304;-75
2023/06/24 08:38:08;;;;;;;0.20;0.10;;;;;;;-148.14;100.00;71486.72;1725331;75;41571;-76
2023/06/24 08:40:39;;;;;;;0.20;0.10;;;;;;;-148.14;100.00;71486.72;1725683;75;41108;-76
2023/06/24 08:43:09;;;;;;;0.10;0.10;;;;;;;-148.14;100.00;71486.72;1725268;75;42493;-74
2023/06/24 08:45:38;;;;;;;0.10;0.10;;;;;;;-148.14;100.00;71486.72;1725018;75;41461;-75
2023/06/24 08:48:11;;;;;;;0.00;0.00;;;;;;;-148.14;100.00;71486.72;1725281;75;41244;-75
2023/06/24 08:50:49;;;;;;;0.10;0.10;;;;;;;-148.14;100.00;71486.72;1725611;75;41208;-77
2023/06/24 08:53:19;;;;;;;0.40;0.10;;;;;;;-148.14;100.00;71486.72;1725381;75;41884;-76
2023/06/24 08:55:49;;;;;;;0.40;0.10;;;;;;;-148.14;100.00;71486.72;1725445;75;41190;-75
2023/06/24 08:58:19;;;;;;;0.50;0.10;;;;;;;-148.14;100.00;71486.72;1725089;75;41550;-74
2023/06/24 09:00:48;;;;;;;0.10;0.10;;;;;;;-148.14;100.00;71486.72;1725279;75;41070;-75
2023/06/24 09:03:20;;;;;;;0.10;0.10;;;;;;;-148.14;100.00;71486.72;1725317;75;41565;-75
2023/06/24 09:05:50;;;;;;;0.20;0.00;;;;;;;-148.14;100.00;71486.72;1724859;75;41748;-75
2023/06/24 09:08:21;;;;;;;0.20;0.10;;;;;;;-148.14;100.00;71486.72;1725199;75;41616;-77
2023/06/24 09:10:57;;;;;;;0.00;0.00;;;;;;;-148.14;100.00;71486.72;1725641;75;41380;-76
2023/06/24 09:13:37;;;;;;;0.10;0.00;;;;;;;-148.14;100.00;71486.72;1725326;75;42009;-79
2023/06/24 09:16:16;;;;;;;0.30;0.10;;;;;;;-148.14;100.00;71486.72;1724902;75;41374;-74
2023/06/24 09:18:51;;;;;;;0.00;0.00;;;;;;;-148.14;100.00;71486.72;1725837;75;41534;-73
2023/06/24 09:21:30;;;;;;;0.50;0.10;;;;;;;-148.14;100.00;71486.72;1724295;75;42042;-79
2023/06/24 09:24:00;;;;;;;0.10;0.10;;;;;;;-148.14;100.00;71486.72;1725405;75;41581;-74
2023/06/24 09:26:30;;;;;;;0.30;0.10;;;;;;;-148.14;100.00;71486.72;1724988;75;43511;-74
2023/06/24 09:29:01;;;;;;;0.60;0.10;;;;;;;-148.14;100.00;71486.72;1725642;75;41249;-73
2023/06/24 09:31:30;;;;;;;0.10;0.00;;;;;;;-148.14;100.00;71486.72;1725007;75;41684;-75
2023/06/24 09:34:03;;;;;;;0.90;0.40;;;;;;;-148.14;100.00;71486.72;1725440;75;42306;-72
2023/06/24 09:36:32;;;;;;;0.10;0.10;;;;;;;-148.14;100.00;71486.72;1725159;75;41657;-75
2023/06/24 09:39:09;;;;;;;0.00;0.00;;;;;;;-148.14;100.00;71486.72;1725590;75;41083;-74
2023/06/24 09:41:39;;;;;;;0.10;0.10;;;;;;;-148.14;100.00;71486.72;1725085;83;41911;-77
2023/06/24 09:44:12;;;;;;;0.20;0.10;;;;;;;-148.14;100.00;71486.72;1724876;75;41123;-73
2023/06/24 09:46:42;;;;;;;0.50;0.20;;;;;;;-148.14;100.00;71486.72;1724612;75;41635;-74
2023/06/24 09:49:14;;;;;;;0.30;0.10;;;;;;;-148.14;100.00;71486.72;1724599;75;41642;-72
2023/06/24 09:51:45;;;;;;;0.00;0.00;;;;;;;-148.14;100.00;71486.72;1724723;75;42434;-74
2023/06/24 09:54:17;;;;;;;0.00;0.00;;;;;;;-148.14;100.00;71486.72;1724440;75;41532;-76
2023/06/24 09:56:53;;;;;;;0.10;0.00;;;;;;;-148.14;100.00;71486.72;1724787;75;41829;-72
2023/06/24 09:59:24;;;;;;;0.00;0.00;;;;;;;-148.14;100.00;71486.72;1724678;75;41539;-74
2023/06/24 10:01:55;;;;;;;0.00;0.00;;;;;;;-148.14;100.00;71486.72;1725555;75;41137;-73
2023/06/24 10:04:28;;;;;;;0.00;0.00;;;;;;;-148.14;100.00;71486.72;1724955;83;41709;-73
2023/06/24 10:06:58;;;;;;;0.00;0.00;;;;;;;-148.14;100.00;71486.72;1725410;83;41533;-74
2023/06/24 10:09:27;;;;;;;0.20;0.20;;;;;;;-148.14;100.00;71486.72;1724920;75;41866;-75
2023/06/24 10:11:57;;;;;;;0.40;0.10;;;;;;;-148.14;100.00;71486.72;1724879;75;42251;-76
2023/06/24 10:14:26;;;;;;;0.30;0.10;;;;;;;-148.14;100.00;71486.72;1724311;75;41172;-73
2023/06/24 10:17:04;;;;;;;0.10;0.10;;;;;;;-148.14;100.00;71486.72;1725471;75;41746;-74
2023/06/24 10:19:42;;;;;;;0.10;0.10;;;;;;;-148.14;100.00;71486.72;1725230;75;41280;-77
2023/06/24 10:22:12;;;;;;;0.10;0.10;;;;;;;-148.14;100.00;71486.72;1725568;83;41340;-72
2023/06/24 10:24:44;;;;;;;0.00;0.00;;;;;;;-148.14;100.00;71486.72;1724823;75;41557;-73
2023/06/24 10:27:20;;;;;;;0.10;0.10;;;;;;;-148.14;100.00;71486.72;1725315;83;41185;-72
2023/06/24 10:29:51;;;;;;;0.00;0.00;;;;;;;-148.14;100.00;71486.72;1724588;75;42277;-71
2023/06/24 10:32:21;;;;;;;0.10;0.00;;;;;;;-148.14;100.00;71486.72;1725203;75;41461;-73
2023/06/24 10:34:58;;;;;;;0.10;0.10;;;;;;;-148.14;100.00;71486.72;1724942;75;41666;-75
2023/06/24 10:37:28;;;;;;;;;;;;;;;-148.14;100.00;71486.72;1725184;75;41362;-75
2023/06/24 10:39:59;;;;;;;0.10;0.10;;;;;;;-148.14;100.00;71486.72;1725300;75;41392;-76
2023/06/24 10:42:53;;;;;;;0.00;0.00;;;;;;;-148.14;100.00;71486.72;1724754;75;41137;-75
2023/06/24 10:45:24;;;;;;;0.00;0.00;;;;;;;-148.14;100.00;71486.72;1725415;75;41141;-76
2023/06/24 10:47:56;;;;;;;0.20;0.10;;;;;;;-148.14;100.00;71486.72;1724873;83;41665;-73
2023/06/24 10:50:28;;;;;;;0.60;0.10;;;;;;;-148.14;100.00;71486.72;1725240;75;41476;-73
2023/06/24 10:52:58;;;;;;;0.00;0.00;;;;;;;-148.14;100.00;71486.72;1724869;75;42489;-74
2023/06/24 10:55:28;;;;;;;0.30;0.10;;;;;;;-148.14;100.00;71486.72;1724540;75;41830;-74
2023/06/24 10:57:57;;;;;;;1.00;0.10;;;;;;;-148.14;100.00;71486.72;1724392;75;41365;-72
2023/06/24 11:00:27;;;;;;;0.50;0.00;;;;;;;-148.14;100.00;71486.72;1725373;75;41085;-72
2023/06/24 11:02:56;;;;;;;0.20;0.10;;;;;;;-148.14;100.00;71486.72;1724826;75;41615;-76
2023/06/24 11:05:29;;;;;;;0.10;0.00;;;;;;;-148.14;100.00;71486.72;1724485;83;41607;-72
2023/06/24 11:08:00;;;;;;;0.30;0.00;;;;;;;-148.14;100.00;71486.72;1724880;75;41512;-73
2023/06/24 11:10:30;;;;;;;0.00;0.00;;;;;;;-148.14;100.00;71486.72;1725103;75;41142;-72
2023/06/24 11:13:00;;;;;;;0.10;0.00;;;;;;;-148.14;100.00;71486.72;1724821;75;41688;-72
2023/06/24 11:15:29;;;;;;;0.00;0.00;;;;;;;-148.14;100.00;71486.72;1725018;75;41552;-74
2023/06/24 11:17:59;;;;;;;0.10;0.10;;;;;;;-148.14;100.00;71486.72;1724834;75;41434;-73
2023/06/24 11:20:31;;;;;;;0.70;0.10;;;;;;;-148.14;100.00;71486.72;1725140;75;41303;-74
2023/06/24 11:23:01;;;;;;;0.00;0.00;;;;;;;-148.14;100.00;71486.72;1724624;83;41336;-74
2023/06/24 11:25:30;;;;;;;0.20;0.10;;;;;;;-148.14;100.00;71486.72;1725349;75;41130;-73
2023/06/24 11:28:01;;;;;;;0.00;0.00;;;;;;;-148.14;100.00;71486.72;1724077;75;42131;-73